Overview Statistics Trail Chart Weather Telemetry Raw packets
 

This is the latest recevied weather packets stored in our database for station/object KK4MOR. If no packets are shown the sender has not sent any weather packets the latest 10 day(s).

<< 25 26 27 28 29 30 31 >>
Time Temp. Humidity Pressure Rain* Wind** Luminosity Snow
1788021038 28.89° C 71% 1017.6 hPa 0 mm - - -
1788020137 28.89° C 71% 1017.7 hPa 0 mm - - -
1788019231 28.33° C 76% 1017.9 hPa 0 mm - - -
1788018329 27.78° C 75% 1017.8 hPa 0 mm - - -
1788017429 27.22° C 74% 1017.9 hPa 0 mm - - -
1788016525 27.22° C 76% 1017.8 hPa 0 mm - - -
1788015623 26.67° C 77% 1017.7 hPa 0 mm - - -
1788014720 26.11° C 78% 1017.7 hPa 0 mm - - -
1788013819 26.11° C 78% 1017.9 hPa 0 mm - - -
1788012915 25.56° C 79% 1017.9 hPa 0 mm - - -
1788012011 24.44° C 83% 1017.6 hPa 0 mm - - -
1788011107 23.89° C 85% 1017.4 hPa 0 mm - - -
1788010214 22.78° C 90% 1017.4 hPa 0 mm - - -
1788009358 22.22° C 91% 1017.3 hPa 0 mm - - -
1788008469 21.11° C 94% 1017.2 hPa 0 mm - - -
1788007555 20° C 95% 1016.9 hPa 0 mm - - -
1788006647 19.44° C 96% 1016.8 hPa 0 mm - - -
1788005750 18.89° C 96% 1016.6 hPa 0 mm - - -
1788004844 18.33° C 96% 1016.6 hPa 0 mm - - -
1788003942 18.33° C 95% 1016.6 hPa 0 mm - - -
1788003043 18.33° C 95% 1016.4 hPa 0 mm - - -
1788002147 18.33° C 95% 1016.3 hPa 0 mm - - -
1788001239 18.33° C 95% 1016.3 hPa 0 mm - - -
1788000342 18.33° C 95% 1016.3 hPa 0 mm - - -
1787999442 18.33° C 95% 1016.2 hPa 0 mm - - -

* Rain latest hour (hover to see other rain measurements)
** Current wind speed in m/s (hover to see current wind gust speed)